createdAt,value
2023-05-08T00:02:46.101Z,13.42
2023-05-08T00:07:48.395Z,13.45
2023-05-08T00:12:51.476Z,13.40
2023-05-08T00:17:53.277Z,13.28
2023-05-08T00:22:55.036Z,13.21
2023-05-08T00:27:58.188Z,13.15
2023-05-08T00:33:00.246Z,13.06
2023-05-08T00:38:02.022Z,13.03
2023-05-08T00:43:05.069Z,12.90
2023-05-08T00:48:06.826Z,12.91
2023-05-08T00:53:08.546Z,12.83
2023-05-08T00:58:11.648Z,12.86
2023-05-08T01:03:14.125Z,12.73
2023-05-08T01:08:16.063Z,12.75
2023-05-08T01:13:23.626Z,12.61
2023-05-08T01:18:28.137Z,12.50
2023-05-08T01:23:40.218Z,12.52
2023-05-08T01:28:54.808Z,12.31
2023-05-08T01:34:01.856Z,12.26
2023-05-08T01:39:08.537Z,11.95
2023-05-08T01:44:12.527Z,11.94
2023-05-08T01:49:18.047Z,11.90
2023-05-08T01:54:21.071Z,11.74
2023-05-08T01:59:23.656Z,11.64
2023-05-08T02:04:27.132Z,11.68
2023-05-08T02:09:28.929Z,11.51
2023-05-08T02:14:30.638Z,11.56
2023-05-08T02:19:33.647Z,11.50
2023-05-08T02:24:35.580Z,11.44
2023-05-08T02:29:37.607Z,11.35
2023-05-08T02:34:45.176Z,11.43
2023-05-08T02:39:53.984Z,11.37
2023-05-08T02:44:56.122Z,11.33
2023-05-08T02:50:02.445Z,11.37
2023-05-08T02:55:06.936Z,11.37
2023-05-08T03:00:12.971Z,11.39
2023-05-08T03:05:17.577Z,11.35
2023-05-08T03:10:19.332Z,11.28
2023-05-08T03:15:23.995Z,11.31
2023-05-08T03:20:27.188Z,11.38
2023-05-08T03:25:29.250Z,11.33
2023-05-08T03:30:31.355Z,11.18
2023-05-08T03:35:39.459Z,11.23
2023-05-08T03:40:42.796Z,11.22
2023-05-08T03:45:45.291Z,11.09
2023-05-08T03:50:48.566Z,11.20
2023-05-08T03:55:50.647Z,11.20
2023-05-08T04:00:58.778Z,11.24
2023-05-08T04:06:06.836Z,11.31
2023-05-08T04:11:12.090Z,11.37
2023-05-08T04:16:16.526Z,11.30
2023-05-08T04:21:20.506Z,11.21
2023-05-08T04:26:22.586Z,11.32
2023-05-08T04:31:26.762Z,11.37
2023-05-08T04:36:30.746Z,11.34
2023-05-08T04:41:35.342Z,11.44
2023-05-08T04:46:37.760Z,11.46
2023-05-08T04:51:41.131Z,11.58
2023-05-08T04:56:43.078Z,11.51
2023-05-08T05:01:45.934Z,11.49
2023-05-08T05:06:49.296Z,11.55
2023-05-08T05:11:51.159Z,11.67
2023-05-08T05:16:53.519Z,11.82
2023-05-08T05:21:56.688Z,11.81
2023-05-08T05:26:58.980Z,11.83
2023-05-08T05:32:01.757Z,11.84
2023-05-08T05:37:05.048Z,12.00
2023-05-08T05:42:07.380Z,12.20
2023-05-08T05:47:10.648Z,12.26
2023-05-08T05:52:15.262Z,12.49
2023-05-08T05:57:17.700Z,12.81
2023-05-08T06:02:20.363Z,12.92
2023-05-08T06:07:23.720Z,13.09
2023-05-08T06:12:25.692Z,13.17
2023-05-08T06:17:27.833Z,13.45
2023-05-08T06:22:31.519Z,13.65
2023-05-08T06:27:34.659Z,13.64
2023-05-08T06:32:36.565Z,13.75
2023-05-08T06:37:39.907Z,13.97
2023-05-08T06:42:41.631Z,14.21
2023-05-08T06:47:43.363Z,14.32
2023-05-08T06:52:46.406Z,14.59
2023-05-08T06:57:48.085Z,14.72
2023-05-08T07:02:49.909Z,14.87
2023-05-08T07:07:54.231Z,15.12
2023-05-08T07:12:56.024Z,14.94
2023-05-08T07:17:57.823Z,15.25
2023-05-08T07:23:01.180Z,15.48
2023-05-08T07:28:02.876Z,15.66
2023-05-08T07:33:04.827Z,15.85
2023-05-08T07:38:07.972Z,16.22
2023-05-08T07:43:09.744Z,16.52
2023-05-08T07:48:11.847Z,18.71
2023-05-08T07:53:15.131Z,20.77
2023-05-08T07:58:16.840Z,21.87
2023-05-08T08:03:18.781Z,22.27
2023-05-08T08:08:21.961Z,21.98
2023-05-08T08:13:23.706Z,22.66
2023-05-08T08:18:25.565Z,22.70
2023-05-08T08:23:28.595Z,24.08
2023-05-08T08:28:30.377Z,25.69
2023-05-08T08:33:32.073Z,27.41
2023-05-08T08:38:35.078Z,27.35
2023-05-08T08:43:39.750Z,26.31
2023-05-08T08:48:43.614Z,26.19
2023-05-08T08:53:46.812Z,25.74
2023-05-08T08:58:51.889Z,25.96
2023-05-08T09:03:53.770Z,25.87
2023-05-08T09:08:57.946Z,26.37
2023-05-08T09:13:59.627Z,26.54
2023-05-08T09:19:03.338Z,27.35
2023-05-08T09:24:07.127Z,26.09
2023-05-08T09:29:10.192Z,25.83
2023-05-08T09:34:23.858Z,25.69
2023-05-08T09:39:26.884Z,26.46
2023-05-08T09:44:28.693Z,26.57
2023-05-08T09:49:30.415Z,26.30
2023-05-08T09:54:33.492Z,26.17
2023-05-08T09:59:35.176Z,26.85
2023-05-08T10:04:37.512Z,27.43
2023-05-08T10:09:50.385Z,28.13
2023-05-08T10:14:52.677Z,27.99
2023-05-08T10:19:56.414Z,28.00
2023-05-08T10:24:59.541Z,28.07
2023-05-08T10:30:02.443Z,27.84
2023-05-08T10:35:05.032Z,28.18
2023-05-08T10:40:08.872Z,27.20
2023-05-08T10:45:11.012Z,27.09
2023-05-08T10:50:19.237Z,27.09
2023-05-08T10:55:25.535Z,26.89
2023-05-08T11:00:31.369Z,26.66
2023-05-08T11:05:44.642Z,26.33
2023-05-08T11:10:49.864Z,26.14
2023-05-08T11:15:51.699Z,25.72
2023-05-08T11:20:58.711Z,25.05
2023-05-08T11:26:02.675Z,24.95
2023-05-08T11:31:04.816Z,24.74
2023-05-08T11:36:13.355Z,24.63
2023-05-08T11:41:21.989Z,24.73
2023-05-08T11:46:23.813Z,24.99
2023-05-08T11:51:25.566Z,24.78
2023-05-08T11:56:28.621Z,25.01
2023-05-08T12:01:30.956Z,24.85
2023-05-08T12:06:34.764Z,24.65
2023-05-08T12:11:39.166Z,24.66
2023-05-08T12:16:40.988Z,24.51
2023-05-08T12:21:47.368Z,24.19
2023-05-08T12:26:53.452Z,24.04
2023-05-08T12:31:55.225Z,24.38
2023-05-08T12:37:03.323Z,24.40
2023-05-08T12:42:06.490Z,24.56
2023-05-08T12:47:08.353Z,24.81
2023-05-08T12:52:12.842Z,24.81
2023-05-08T12:57:16.546Z,25.05
2023-05-08T13:02:19.154Z,24.85
2023-05-08T13:07:20.947Z,25.02
2023-05-08T13:12:23.987Z,24.81
2023-05-08T13:17:25.725Z,24.90
2023-05-08T13:22:27.720Z,24.85
2023-05-08T13:27:30.769Z,24.82
2023-05-08T13:32:32.583Z,24.84
2023-05-08T13:37:34.314Z,24.52
2023-05-08T13:42:37.431Z,24.38
2023-05-08T13:47:39.210Z,24.40
2023-05-08T13:52:40.993Z,24.31
2023-05-08T13:57:44.074Z,24.18
2023-05-08T14:02:46.524Z,24.02
2023-05-08T14:07:48.593Z,24.00
2023-05-08T14:12:51.803Z,24.02
2023-05-08T14:17:53.542Z,23.99
2023-05-08T14:22:59.577Z,23.61
2023-05-08T14:28:03.283Z,23.73
2023-05-08T14:33:05.013Z,23.46
2023-05-08T14:38:06.752Z,23.57
2023-05-08T14:43:09.788Z,23.58
2023-05-08T14:48:11.621Z,23.67
2023-05-08T14:53:13.513Z,23.73
2023-05-08T14:58:16.715Z,23.69
2023-05-08T15:03:18.694Z,23.67
2023-05-08T15:08:20.535Z,23.59
2023-05-08T15:13:23.600Z,23.37
2023-05-08T15:18:28.378Z,23.14
2023-05-08T15:23:30.098Z,23.09
2023-05-08T15:28:33.122Z,23.07
2023-05-08T15:33:34.817Z,23.23
2023-05-08T15:38:36.476Z,23.16
2023-05-08T15:43:39.610Z,23.10
2023-05-08T15:48:41.286Z,23.06
2023-05-08T15:53:42.958Z,23.14
2023-05-08T15:58:46.008Z,23.01
2023-05-08T16:03:47.713Z,22.88
2023-05-08T16:08:49.523Z,22.90
2023-05-08T16:13:52.500Z,22.81
2023-05-08T16:18:54.188Z,22.81
2023-05-08T16:23:55.936Z,22.73
2023-05-08T16:28:59.086Z,22.77
2023-05-08T16:34:00.758Z,22.65
2023-05-08T16:39:02.465Z,22.57
2023-05-08T16:44:05.582Z,22.61
2023-05-08T16:49:07.394Z,22.50
2023-05-08T16:54:09.082Z,22.51
2023-05-08T16:59:12.282Z,22.46
2023-05-08T17:04:14.002Z,22.47
2023-05-08T17:09:18.035Z,22.32
2023-05-08T17:14:21.132Z,22.19
2023-05-08T17:19:22.852Z,22.34
2023-05-08T17:24:24.579Z,22.23
2023-05-08T17:29:27.699Z,22.17
2023-05-08T17:34:29.447Z,22.15
2023-05-08T17:39:31.132Z,21.89
2023-05-08T17:44:34.182Z,21.88
2023-05-08T17:49:36.137Z,21.97
2023-05-08T17:54:37.946Z,21.95
2023-05-08T17:59:41.061Z,21.81
2023-05-08T18:04:42.806Z,21.77
2023-05-08T18:09:44.557Z,21.68
2023-05-08T18:14:47.982Z,21.62
2023-05-08T18:19:49.757Z,21.38
2023-05-08T18:24:52.864Z,21.29
2023-05-08T18:29:55.948Z,21.19
2023-05-08T18:34:57.651Z,21.04
2023-05-08T18:39:59.347Z,21.00
2023-05-08T18:45:02.987Z,20.94
2023-05-08T18:50:05.536Z,20.91
2023-05-08T18:55:07.873Z,20.85
2023-05-08T19:00:13.621Z,20.75
2023-05-08T19:05:15.668Z,20.73
2023-05-08T19:10:17.434Z,20.51
2023-05-08T19:15:20.579Z,20.29
2023-05-08T19:20:22.542Z,20.09
2023-05-08T19:25:24.553Z,19.83
2023-05-08T19:30:27.638Z,19.78
2023-05-08T19:35:29.442Z,19.73
2023-05-08T19:40:31.839Z,19.53
2023-05-08T19:45:34.938Z,19.38
2023-05-08T19:50:36.647Z,19.39
2023-05-08T19:55:38.363Z,19.34
2023-05-08T20:00:41.529Z,19.32
2023-05-08T20:05:43.284Z,19.27
2023-05-08T20:10:45.895Z,19.22
2023-05-08T20:15:49.018Z,19.05
2023-05-08T20:20:50.835Z,19.01
2023-05-08T20:25:54.172Z,18.92
2023-05-08T20:30:57.274Z,18.84
2023-05-08T20:35:59.038Z,18.64
2023-05-08T20:41:01.333Z,18.63
2023-05-08T20:46:04.758Z,18.71
2023-05-08T20:51:06.531Z,18.69
2023-05-08T20:56:08.642Z,18.57
2023-05-08T21:01:11.790Z,18.56
2023-05-08T21:06:13.630Z,18.35
2023-05-08T21:11:16.289Z,18.31
2023-05-08T21:16:19.344Z,18.18
2023-05-08T21:21:21.067Z,18.14
2023-05-08T21:26:23.658Z,18.11
2023-05-08T21:31:28.682Z,18.21
2023-05-08T21:36:32.079Z,18.06
2023-05-08T21:41:33.813Z,17.97
2023-05-08T21:46:36.885Z,17.80
2023-05-08T21:51:38.620Z,17.82
2023-05-08T21:56:40.374Z,17.79
2023-05-08T22:01:44.197Z,17.67
2023-05-08T22:06:45.994Z,17.55
2023-05-08T22:11:47.692Z,17.44
2023-05-08T22:16:50.935Z,17.41
2023-05-08T22:21:52.653Z,17.32
2023-05-08T22:26:54.411Z,17.32
2023-05-08T22:31:57.529Z,17.11
2023-05-08T22:36:59.252Z,17.12
2023-05-08T22:42:02.037Z,17.05
2023-05-08T22:47:05.554Z,17.01
2023-05-08T22:52:07.478Z,16.92
2023-05-08T22:57:09.232Z,16.77
2023-05-08T23:02:12.262Z,16.75
2023-05-08T23:07:13.929Z,16.61
2023-05-08T23:12:15.714Z,16.36
2023-05-08T23:17:18.752Z,16.21
2023-05-08T23:22:20.543Z,16.27
2023-05-08T23:27:22.257Z,16.06
2023-05-08T23:32:25.312Z,16.01
2023-05-08T23:37:27.022Z,15.88
2023-05-08T23:42:28.747Z,15.87
2023-05-08T23:47:31.880Z,15.75
2023-05-08T23:52:33.592Z,15.74
2023-05-08T23:57:35.583Z,15.80
